Aérodrome :
LOGIN :

S'inscrire | Disclaimer

   EN    FR    IT 

 










Légende :    VFR   VFR Marginal   IFR   IFR Intensif   IFR Très Intensif
Visi : 
Plafond : 
>= 8 km
>= 3000ft
5 à 8 km
1000 à 3000 ft
1500m à 5 km
500 à 1000 ft
800 à 1500m
200 à 500 ft
< 800m
< 200 ft
Symboles :   Orages  Brouillard  Fortes neiges  Fortes précipitations  Vent > 20 kt
SIGMETs :   Divers  Orages  Givrage  Turbulence  Onde Orograph.  Cendres Volcan.







- Altitude de l'aérodrome : 870 ft
- Code IATA : ETZ
- Voir les cartes d'approche


LFJL - Metz Nancy Lorraine

DERNIER METAR :
  • 260730Z AUTO 22009KT 9999 FEW008 BKN038 BKN092 08/07 Q1014 TEMPO BKN014

METARs EXPIRÉS :
  • 260700Z AUTO 22009KT 9999 SCT033 BKN078 OVC090 08/07 Q1014
  • 260630Z AUTO 19008KT 9999 FEW022 BKN030 BKN068 07/07 Q1014
  • 260600Z AUTO 19008KT 9999 SCT018 SCT024 BKN068 07/07 Q1014
  • 260530Z AUTO 21005KT 9999 BKN024 BKN100 OVC230 07/06 Q1013
  • 260500Z AUTO 22007KT 9999 FEW024 BKN120 OVC140 07/06 Q1013 TEMPO BKN007
  • 260430Z AUTO 18007KT CAVOK 07/06 Q1013 TEMPO BKN007

TAF AMD TAF LFJL
Valide du 26 à 06h jusqu'au 27 à 06h UTC


260609Z 2606/2706 21009KT 9999 FEW013 SCT020 BKN060
TEMPO 2606/2609 -RA BKN014
PROB40
TEMPO 2613/2618 SHRA FEW035CB BKN040
TEMPO 2702/2706 5000 RA BKN013 OVC025
Pas de NOTAMs connus pour ce terrain.



MET'MAP, la Météo Aéronautique d'un coup d'oeil ! - Copyright ORBIFLY Décembre 2007 - Disclaimer

ORBIFLY MET'MAP TEAM :

Programmation & Développement : Alexandra Zaïnal
Conception & Développement : Baudouin d'Aumeries
Co-Programmation & Développement : Marc-Olivier Méhu
Soutien technique & logistique : Manuel Goepfert

Contact : metmap@orbifly.com




SOURCES & CREDITS :

   NOAA